Time;durP1;ratioP1;P1;durP2;ratioP2;P2;SDS_P1;SDS_P2;PMS_P1;PMS_P2;Temp;Humidity;BMP_temperature;BMP_pressure;BME280_temperature;BME280_humidity;BME280_pressure;Samples;Min_cycle;Max_cycle;Signal;HPM_P1;HPM_P2
2024/01/26 00:00:30;;;;;;;140.47;50.47;;;2.20;98.50;;;;;;6193512;23;20215;-83
2024/01/26 00:03:00;;;;;;;122.13;50.83;;;2.20;98.60;;;;;;6220081;23;20200;-83
2024/01/26 00:05:27;;;;;;;142.00;52.73;;;2.20;98.70;;;;;;6193042;23;20208;-83
2024/01/26 00:07:55;;;;;;;150.97;57.13;;;2.10;98.70;;;;;;6193883;23;20257;-83
2024/01/26 00:10:22;;;;;;;167.47;58.20;;;2.10;98.70;;;;;;6169160;23;20181;-83
2024/01/26 00:12:50;;;;;;;252.27;62.13;;;2.10;98.80;;;;;;6219537;23;20193;-83
2024/01/26 00:15:18;;;;;;;205.77;61.50;;;2.10;98.80;;;;;;6168724;23;20186;-83
2024/01/26 00:17:46;;;;;;;177.70;57.83;;;2.10;98.80;;;;;;6192978;23;20173;-84
2024/01/26 00:20:14;;;;;;;142.87;52.53;;;2.10;98.80;;;;;;6168244;23;20266;-84
2024/01/26 00:22:42;;;;;;;106.87;50.80;;;2.00;98.70;;;;;;6193456;23;20251;-83
2024/01/26 00:25:11;;;;;;;85.87;51.70;;;2.00;98.60;;;;;;6193651;23;20199;-84
2024/01/26 00:27:40;;;;;;;93.60;51.70;;;1.90;98.60;;;;;;6193174;23;20179;-84
2024/01/26 00:30:08;;;;;;;100.87;53.27;;;1.90;98.60;;;;;;6219145;23;20284;-84
2024/01/26 00:32:36;;;;;;;132.00;57.77;;;1.90;98.70;;;;;;6168834;23;20188;-84
2024/01/26 00:35:04;;;;;;;120.60;52.57;;;1.90;98.80;;;;;;6193704;23;20186;-84
2024/01/26 00:37:32;;;;;;;109.70;52.73;;;1.90;98.80;;;;;;6194532;23;20256;-84
2024/01/26 00:40:00;;;;;;;82.20;51.87;;;1.80;98.80;;;;;;6193846;23;20203;-84
2024/01/26 00:42:28;;;;;;;79.50;49.87;;;1.80;98.90;;;;;;6219427;23;20616;-84
2024/01/26 00:44:57;;;;;;;78.87;50.47;;;1.80;98.90;;;;;;6217951;23;20289;-84
2024/01/26 00:47:24;;;;;;;77.60;49.57;;;1.90;98.90;;;;;;6169002;23;20531;-85
2024/01/26 00:49:52;;;;;;;76.07;50.97;;;1.80;98.80;;;;;;6219024;23;20204;-85
2024/01/26 00:52:27;;;;;;;78.43;49.30;;;1.80;98.80;;;;;;6170219;23;20220;-84
2024/01/26 00:54:56;;;;;;;80.13;49.70;;;1.80;98.90;;;;;;6219200;23;20252;-84
2024/01/26 00:57:25;;;;;;;73.27;47.70;;;1.80;98.80;;;;;;6219355;23;20181;-84
2024/01/26 00:59:53;;;;;;;90.70;51.63;;;1.80;98.70;;;;;;6220433;23;20206;-84
2024/01/26 01:02:20;;;;;;;84.80;52.67;;;1.70;98.60;;;;;;6168857;23;20584;-85
2024/01/26 01:04:49;;;;;;;94.93;52.67;;;1.70;98.60;;;;;;6193792;23;20213;-85
2024/01/26 01:07:17;;;;;;;82.60;53.47;;;1.70;98.60;;;;;;6170135;23;20177;-85
2024/01/26 01:09:45;;;;;;;89.97;54.93;;;1.60;98.60;;;;;;6193903;23;20174;-85
2024/01/26 01:12:12;;;;;;;94.30;54.43;;;1.60;98.60;;;;;;6193387;23;20240;-85
2024/01/26 01:14:40;;;;;;;87.03;51.93;;;1.60;98.60;;;;;;6218750;23;20188;-85
2024/01/26 01:17:09;;;;;;;194.50;53.43;;;1.60;98.60;;;;;;6192004;23;20220;-84
2024/01/26 01:19:38;;;;;;;84.63;50.43;;;1.50;98.50;;;;;;6217486;23;20207;-85
2024/01/26 01:22:06;;;;;;;77.13;50.73;;;1.50;98.40;;;;;;6218629;23;20251;-84
2024/01/26 01:24:33;;;;;;;86.33;53.00;;;1.50;98.40;;;;;;6191764;23;20223;-84
2024/01/26 01:27:03;;;;;;;79.70;52.50;;;1.50;98.40;;;;;;6167775;23;20207;-84
2024/01/26 01:29:31;;;;;;;75.70;50.50;;;1.40;98.50;;;;;;6167787;23;20173;-84
2024/01/26 01:32:00;;;;;;;81.93;51.83;;;1.40;98.50;;;;;;6169560;23;20203;-84
2024/01/26 01:34:28;;;;;;;76.23;49.83;;;1.40;98.50;;;;;;6219378;23;20595;-84
2024/01/26 01:36:56;;;;;;;78.00;51.70;;;1.40;98.50;;;;;;6169607;23;20188;-84
2024/01/26 01:39:26;;;;;;;82.03;55.80;;;1.40;98.50;;;;;;6193525;23;20251;-84
2024/01/26 01:41:54;;;;;;;86.80;54.67;;;1.30;98.50;;;;;;6194386;23;20504;-84
2024/01/26 01:44:22;;;;;;;88.63;56.33;;;1.40;98.80;;;;;;6218986;23;20287;-84
2024/01/26 01:46:50;;;;;;;89.90;58.63;;;1.40;98.50;;;;;;6218684;23;20203;-84
2024/01/26 01:49:18;;;;;;;82.30;53.30;;;1.40;98.50;;;;;;6193937;23;20608;-85
2024/01/26 01:51:51;;;;;;;81.33;53.57;;;1.30;98.50;;;;;;6219937;23;20174;-84
2024/01/26 01:54:19;;;;;;;84.03;54.83;;;1.40;98.50;;;;;;6168985;23;20190;-84
2024/01/26 01:56:49;;;;;;;93.70;54.83;;;1.40;98.40;;;;;;6193867;23;20215;-84
2024/01/26 01:59:21;;;;;;;79.87;51.17;;;1.40;98.40;;;;;;6193403;23;20213;-84
2024/01/26 02:01:50;;;;;;;87.83;56.40;;;1.40;98.40;;;;;;6169087;23;20243;-84
2024/01/26 02:04:19;;;;;;;89.30;56.87;;;1.40;98.40;;;;;;6193415;23;20192;-84
2024/01/26 02:06:58;;;;;;;84.77;55.47;;;1.30;98.30;;;;;;6218606;23;20181;-84
2024/01/26 02:09:27;;;;;;;84.03;52.33;;;1.30;98.30;;;;;;6194128;23;20163;-84
2024/01/26 02:11:56;;;;;;;88.97;56.27;;;1.30;98.20;;;;;;6169019;23;20270;-84
2024/01/26 02:14:25;;;;;;;88.93;56.27;;;1.30;98.20;;;;;;6193372;23;20197;-84
2024/01/26 02:17:00;;;;;;;85.87;54.63;;;1.30;98.10;;;;;;6193801;23;20174;-83
2024/01/26 02:19:31;;;;;;;85.43;56.50;;;1.20;98.00;;;;;;6193955;23;20157;-84
2024/01/26 02:21:59;;;;;;;85.13;53.83;;;1.20;98.00;;;;;;6193417;23;20176;-83
2024/01/26 02:24:26;;;;;;;89.40;56.93;;;1.20;98.00;;;;;;6193030;23;20205;-83
2024/01/26 02:26:53;;;;;;;84.03;54.27;;;1.10;98.00;;;;;;6218087;23;20236;-83
2024/01/26 02:29:21;;;;;;;80.97;51.60;;;1.10;98.00;;;;;;6217752;23;20182;-83
2024/01/26 02:31:50;;;;;;;81.40;51.30;;;1.10;98.00;;;;;;6193695;23;20158;-83
2024/01/26 02:34:18;;;;;;;72.87;48.23;;;1.10;97.90;;;;;;6192871;23;20181;-84
2024/01/26 02:36:49;;;;;;;83.73;54.50;;;1.10;97.70;;;;;;6168571;23;20190;-83
2024/01/26 02:39:16;;;;;;;89.27;56.93;;;1.00;97.70;;;;;;6192705;23;20189;-83
2024/01/26 02:41:45;;;;;;;100.30;58.33;;;1.00;97.80;;;;;;6218053;23;20184;-83
2024/01/26 02:44:12;;;;;;;93.83;56.50;;;1.00;97.80;;;;;;6193104;23;20189;-83
2024/01/26 02:46:41;;;;;;;90.43;56.90;;;1.00;97.80;;;;;;6192691;23;20203;-83
2024/01/26 02:49:09;;;;;;;82.43;52.53;;;1.00;97.80;;;;;;6168425;23;20212;-83
2024/01/26 02:51:37;;;;;;;83.40;51.10;;;1.00;97.80;;;;;;6192803;23;20182;-82
2024/01/26 02:54:05;;;;;;;107.77;53.87;;;1.00;97.80;;;;;;6192626;23;20184;-83
2024/01/26 02:56:35;;;;;;;130.80;54.37;;;0.90;97.80;;;;;;6193109;23;20191;-82
2024/01/26 02:59:03;;;;;;;106.17;51.27;;;0.90;97.80;;;;;;6167965;23;20239;-82
2024/01/26 03:01:31;;;;;;;184.50;62.73;;;0.90;97.90;;;;;;6192994;23;20182;-83
2024/01/26 03:03:59;;;;;;;204.60;52.30;;;1.00;98.10;;;;;;6218228;23;20601;-83
2024/01/26 03:06:26;;;;;;;147.37;50.80;;;0.90;98.20;;;;;;6192989;23;20198;-83
2024/01/26 03:08:55;;;;;;;214.43;53.13;;;1.00;98.30;;;;;;6217875;23;20469;-83
2024/01/26 03:11:33;;;;;;;248.73;52.33;;;1.00;98.40;;;;;;6192929;23;20181;-83
2024/01/26 03:14:02;;;;;;;120.30;50.07;;;1.00;98.50;;;;;;6193149;23;20180;-83
2024/01/26 03:16:31;;;;;;;118.90;51.83;;;1.00;98.70;;;;;;6168461;23;20181;-83
2024/01/26 03:18:59;;;;;;;342.93;56.10;;;1.00;98.80;;;;;;6192899;23;20248;-83
2024/01/26 03:21:27;;;;;;;142.30;52.03;;;1.00;98.90;;;;;;6218166;23;20174;-83
2024/01/26 03:23:55;;;;;;;130.10;53.03;;;1.10;98.90;;;;;;6192581;23;20219;-83
2024/01/26 03:26:24;;;;;;;133.80;53.33;;;1.10;99.00;;;;;;6217475;23;20494;-83
2024/01/26 03:28:53;;;;;;;166.77;53.13;;;1.10;99.10;;;;;;6192828;23;20178;-83
2024/01/26 03:31:20;;;;;;;148.43;57.67;;;1.10;99.20;;;;;;6193846;23;20170;-83
2024/01/26 03:33:48;;;;;;;158.03;56.03;;;1.10;99.20;;;;;;6218282;23;20169;-83
2024/01/26 03:36:17;;;;;;;166.87;54.03;;;1.10;99.30;;;;;;6219115;23;20193;-83
2024/01/26 03:38:46;;;;;;;258.40;59.47;;;1.10;99.40;;;;;;6193500;23;20184;-83
2024/01/26 03:41:14;;;;;;;188.50;60.00;;;1.20;99.50;;;;;;6218184;23;20181;-83
2024/01/26 03:43:41;;;;;;;202.00;58.67;;;1.20;99.50;;;;;;6191947;23;20196;-83
2024/01/26 03:46:10;;;;;;;147.83;55.63;;;1.10;99.50;;;;;;6168404;23;20628;-83
2024/01/26 03:48:38;;;;;;;180.80;55.30;;;1.20;99.60;;;;;;6168070;23;20594;-83
2024/01/26 03:51:07;;;;;;;145.47;57.47;;;1.20;99.70;;;;;;6168270;23;20188;-83
2024/01/26 03:53:36;;;;;;;263.27;56.97;;;1.20;99.80;;;;;;6192518;23;20204;-83
2024/01/26 03:56:04;;;;;;;145.17;53.03;;;1.20;99.80;;;;;;6216474;23;20181;-83
2024/01/26 03:58:33;;;;;;;132.27;51.00;;;1.20;99.80;;;;;;6192613;23;20688;-83
2024/01/26 04:01:02;;;;;;;166.60;55.40;;;1.20;99.80;;;;;;6191713;23;20591;-83
2024/01/26 04:03:29;;;;;;;148.20;48.03;;;1.20;99.80;;;;;;6168086;23;20179;-83
2024/01/26 04:05:57;;;;;;;153.33;50.87;;;1.20;99.80;;;;;;6192606;23;20240;-83
2024/01/26 04:08:24;;;;;;;258.43;51.87;;;1.20;99.70;;;;;;6192792;23;20178;-83
2024/01/26 04:10:52;;;;;;;309.50;50.70;;;1.20;99.70;;;;;;6217532;23;20178;-83
2024/01/26 04:13:19;;;;;;;213.43;52.77;;;1.20;99.60;;;;;;6192937;23;20213;-83
2024/01/26 04:15:47;;;;;;;297.20;55.33;;;1.10;99.60;;;;;;6168383;23;20240;-83
2024/01/26 04:18:14;;;;;;;282.80;54.77;;;1.10;99.60;;;;;;6192434;23;20262;-82
2024/01/26 04:20:42;;;;;;;170.10;52.03;;;1.10;99.70;;;;;;6217562;23;20256;-83
2024/01/26 04:23:10;;;;;;;185.53;50.80;;;1.10;99.80;;;;;;6217449;23;20187;-83
2024/01/26 04:25:39;;;;;;;205.07;51.07;;;1.10;99.90;;;;;;6192202;23;20509;-83
2024/01/26 04:28:07;;;;;;;204.23;55.30;;;1.10;99.90;;;;;;6217686;23;20201;-83
2024/01/26 04:30:35;;;;;;;224.10;52.00;;;1.10;99.90;;;;;;6192590;23;20177;-83
2024/01/26 04:33:06;;;;;;;214.07;51.50;;;1.10;99.90;;;;;;6192235;23;20188;-83
2024/01/26 04:35:34;;;;;;;152.97;55.27;;;1.10;99.90;;;;;;6193000;23;20185;-82
2024/01/26 04:38:02;;;;;;;179.50;51.57;;;1.10;99.90;;;;;;6219075;23;20181;-83
2024/01/26 04:40:29;;;;;;;153.97;52.50;;;1.10;99.90;;;;;;6192559;23;20715;-83
2024/01/26 04:42:57;;;;;;;167.73;52.00;;;1.20;99.90;;;;;;6217585;23;20260;-83
2024/01/26 04:45:25;;;;;;;236.07;56.37;;;1.20;99.90;;;;;;6218010;23;20202;-83
2024/01/26 04:47:53;;;;;;;133.73;52.47;;;1.20;99.90;;;;;;6217457;23;20288;-82
2024/01/26 04:50:21;;;;;;;206.13;54.23;;;1.20;99.90;;;;;;6168574;23;20182;-83
2024/01/26 04:52:52;;;;;;;118.60;49.47;;;1.20;99.90;;;;;;6167627;23;20181;-83
2024/01/26 04:55:24;;;;;;;151.40;50.40;;;1.20;99.90;;;;;;6217829;23;20159;-83
2024/01/26 04:57:52;;;;;;;144.17;54.83;;;1.20;99.90;;;;;;6217787;23;20517;-83
2024/01/26 05:00:20;;;;;;;135.27;49.37;;;1.10;99.90;;;;;;6192206;23;20237;-83
2024/01/26 05:02:49;;;;;;;126.67;50.43;;;1.10;99.90;;;;;;6217918;23;20181;-83
2024/01/26 05:05:17;;;;;;;129.90;51.97;;;1.10;99.90;;;;;;6192581;23;20196;-83
2024/01/26 05:07:44;;;;;;;117.13;50.20;;;1.10;99.90;;;;;;6192485;23;20183;-82
2024/01/26 05:10:12;;;;;;;122.80;49.43;;;1.10;99.90;;;;;;6217412;23;20197;-83
2024/01/26 05:12:39;;;;;;;157.60;49.53;;;1.10;99.90;;;;;;6168304;23;20188;-83
2024/01/26 05:15:11;;;;;;;147.30;49.90;;;1.10;99.90;;;;;;6192739;23;20260;-82
2024/01/26 05:17:39;;;;;;;137.60;50.87;;;1.10;99.90;;;;;;6192914;23;20162;-83
2024/01/26 05:20:11;;;;;;;131.67;48.30;;;1.10;99.90;;;;;;6194151;23;20249;-83
2024/01/26 05:22:39;;;;;;;162.37;51.93;;;1.10;99.90;;;;;;6168312;23;20239;-83
2024/01/26 05:25:08;;;;;;;131.83;48.60;;;1.10;99.90;;;;;;6192992;23;20204;-83
2024/01/26 05:27:35;;;;;;;172.03;53.87;;;1.10;99.90;;;;;;6193353;23;20241;-83
2024/01/26 05:30:03;;;;;;;161.93;51.13;;;1.10;99.90;;;;;;6168845;23;20601;-82
2024/01/26 05:32:31;;;;;;;129.63;49.50;;;1.10;99.90;;;;;;6193021;23;20345;-82
2024/01/26 05:34:59;;;;;;;136.57;48.23;;;1.10;99.90;;;;;;6192824;23;20173;-83
2024/01/26 05:37:26;;;;;;;214.93;52.23;;;1.10;99.90;;;;;;6193314;23;20276;-83
2024/01/26 05:39:53;;;;;;;216.23;53.13;;;1.10;99.90;;;;;;6218560;23;20171;-83
2024/01/26 05:42:24;;;;;;;168.60;48.60;;;1.10;99.90;;;;;;6218772;23;20193;-82
2024/01/26 05:44:51;;;;;;;135.47;44.10;;;1.10;99.90;;;;;;6217516;23;20173;-82
2024/01/26 05:47:19;;;;;;;139.03;45.73;;;1.10;99.80;;;;;;6192429;23;20194;-82
2024/01/26 05:49:47;;;;;;;142.97;46.03;;;1.00;99.70;;;;;;6192607;23;20186;-83
2024/01/26 05:52:15;;;;;;;175.63;47.97;;;1.00;99.70;;;;;;6192800;23;20648;-82
2024/01/26 05:54:43;;;;;;;184.20;50.97;;;0.90;99.50;;;;;;6192349;23;20273;-82
2024/01/26 05:57:11;;;;;;;156.87;50.17;;;0.80;99.60;;;;;;6192250;23;20256;-82
2024/01/26 05:59:40;;;;;;;193.00;52.30;;;0.80;99.70;;;;;;6217192;23;20201;-83
2024/01/26 06:02:08;;;;;;;122.23;50.63;;;0.80;99.70;;;;;;6218737;23;20214;-83
2024/01/26 06:04:36;;;;;;;273.30;54.93;;;0.70;99.80;;;;;;6192641;23;20206;-85
2024/01/26 06:07:07;;;;;;;164.77;51.00;;;0.70;99.90;;;;;;6194651;23;20240;-82
2024/01/26 06:09:35;;;;;;;105.77;47.50;;;0.70;99.90;;;;;;6170855;23;20200;-82
2024/01/26 06:12:04;;;;;;;107.90;49.80;;;0.70;99.90;;;;;;6218808;23;20584;-83
2024/01/26 06:14:35;;;;;;;191.87;53.27;;;0.70;99.90;;;;;;6168513;23;20186;-84
2024/01/26 06:20:55;;;;;;;125.40;47.30;;;0.70;99.90;;;;;;6221566;23;20156;-83
2024/01/26 06:23:23;;;;;;;201.53;52.17;;;0.70;99.90;;;;;;6170222;23;20165;-83
2024/01/26 06:25:52;;;;;;;164.20;49.50;;;0.70;99.90;;;;;;6219860;23;20174;-83
2024/01/26 06:28:20;;;;;;;145.70;49.10;;;0.70;99.90;;;;;;6194528;23;20461;-83
2024/01/26 06:30:49;;;;;;;193.80;49.73;;;0.70;99.90;;;;;;6218917;23;20201;-83
2024/01/26 06:33:17;;;;;;;176.20;54.77;;;0.70;99.90;;;;;;6169841;23;20203;-83
2024/01/26 06:35:45;;;;;;;305.53;53.77;;;0.70;99.90;;;;;;6221137;23;20219;-83
2024/01/26 06:38:14;;;;;;;125.17;51.00;;;0.70;99.90;;;;;;6170417;23;20480;-83
2024/01/26 06:40:44;;;;;;;187.27;52.27;;;0.70;99.90;;;;;;6220485;23;20167;-83
2024/01/26 06:43:16;;;;;;;161.00;54.20;;;0.70;99.90;;;;;;6221242;23;20542;-82
2024/01/26 06:45:45;;;;;;;164.03;51.27;;;0.70;99.90;;;;;;6194832;23;20500;-83
2024/01/26 06:48:14;;;;;;;258.90;52.40;;;0.70;99.90;;;;;;6196497;23;20180;-83
2024/01/26 06:50:43;;;;;;;135.97;51.80;;;0.70;99.90;;;;;;6220271;23;20199;-83
2024/01/26 06:53:12;;;;;;;101.10;49.57;;;0.70;99.90;;;;;;6195157;23;20209;-83
2024/01/26 06:55:40;;;;;;;140.03;51.80;;;0.70;99.90;;;;;;6195166;23;20254;-83
2024/01/26 06:58:09;;;;;;;133.83;50.80;;;0.80;99.90;;;;;;6220595;23;20213;-83
2024/01/26 07:00:37;;;;;;;155.47;54.37;;;0.80;99.90;;;;;;6170308;23;20188;-83
2024/01/26 07:03:12;;;;;;;158.87;50.40;;;0.80;99.90;;;;;;6195974;23;20621;-83
2024/01/26 07:05:47;;;;;;;134.47;52.97;;;0.80;99.90;;;;;;6195069;23;20233;-83
2024/01/26 07:08:16;;;;;;;146.80;57.70;;;0.90;99.90;;;;;;6220174;23;20638;-83
2024/01/26 07:10:46;;;;;;;133.40;54.67;;;0.90;99.90;;;;;;6222033;23;20169;-83
2024/01/26 07:13:19;;;;;;;166.73;55.50;;;0.90;99.90;;;;;;6170273;23;20589;-84
2024/01/26 07:15:48;;;;;;;110.13;55.67;;;0.90;99.90;;;;;;6171202;23;20208;-84
2024/01/26 07:18:16;;;;;;;137.40;52.73;;;1.00;99.90;;;;;;6195492;23;20240;-84
2024/01/26 07:20:45;;;;;;;106.90;50.20;;;1.00;99.90;;;;;;6195132;23;20181;-83
2024/01/26 07:23:13;;;;;;;123.00;50.03;;;1.10;99.90;;;;;;6220384;23;20175;-83
2024/01/26 07:25:41;;;;;;;111.47;48.57;;;1.10;99.90;;;;;;6221291;23;20193;-84
2024/01/26 07:28:09;;;;;;;98.00;49.23;;;1.10;99.90;;;;;;6195868;23;20211;-84
2024/01/26 07:30:37;;;;;;;119.97;49.73;;;1.20;99.90;;;;;;6221562;23;20180;-83
2024/01/26 07:33:06;;;;;;;97.60;48.53;;;1.20;99.90;;;;;;6196052;23;20172;-83
2024/01/26 07:35:35;;;;;;;84.57;47.80;;;1.20;99.90;;;;;;6195763;23;20181;-83
2024/01/26 07:38:06;;;;;;;78.63;46.67;;;1.30;99.90;;;;;;6221841;23;20157;-83
2024/01/26 07:40:33;;;;;;;68.23;43.47;;;1.30;99.90;;;;;;6196436;23;20193;-84
2024/01/26 07:43:02;;;;;;;76.77;44.73;;;1.30;99.90;;;;;;6220821;23;20173;-84
2024/01/26 07:45:30;;;;;;;94.23;47.67;;;1.30;99.90;;;;;;6220533;23;20188;-83
2024/01/26 07:48:00;;;;;;;70.83;44.40;;;1.40;99.90;;;;;;6220162;23;20185;-83
2024/01/26 07:50:27;;;;;;;75.40;47.10;;;1.40;99.90;;;;;;6221067;23;20234;-83
2024/01/26 07:52:56;;;;;;;68.40;46.40;;;1.40;99.90;;;;;;6222753;23;20178;-82
2024/01/26 07:55:24;;;;;;;87.07;49.90;;;1.50;99.90;;;;;;6221241;23;20272;-83
2024/01/26 07:57:52;;;;;;;86.37;49.47;;;1.50;99.90;;;;;;6171683;23;20226;-82
2024/01/26 08:00:20;;;;;;;78.53;48.47;;;1.60;99.90;;;;;;6196325;23;20208;-83
2024/01/26 08:02:48;;;;;;;86.30;51.40;;;1.60;99.90;;;;;;6196303;23;20185;-82
2024/01/26 08:05:19;;;;;;;86.80;50.83;;;1.70;99.90;;;;;;6221121;23;20184;-82
2024/01/26 08:07:47;;;;;;;95.80;53.53;;;1.70;99.90;;;;;;6196215;23;20185;-82
2024/01/26 08:10:14;;;;;;;85.90;53.50;;;1.80;99.90;;;;;;6195991;23;20181;-82
2024/01/26 08:12:46;;;;;;;104.07;53.70;;;1.90;99.90;;;;;;6219806;23;20185;-82
2024/01/26 08:15:15;;;;;;;106.33;53.43;;;1.90;99.90;;;;;;6194980;23;20480;-82
2024/01/26 08:17:43;;;;;;;101.70;52.20;;;2.00;99.90;;;;;;6196389;23;20193;-82
2024/01/26 08:20:15;;;;;;;94.87;52.93;;;2.00;99.90;;;;;;6195092;23;20190;-82
2024/01/26 08:22:43;;;;;;;111.37;54.50;;;2.10;99.90;;;;;;6195751;23;20169;-82
2024/01/26 08:25:11;;;;;;;97.80;51.23;;;2.10;99.90;;;;;;6219448;23;20466;-82
2024/01/26 08:27:40;;;;;;;83.33;52.00;;;2.10;99.90;;;;;;6194801;23;20192;-82
2024/01/26 08:30:09;;;;;;;89.33;51.93;;;2.20;99.90;;;;;;6194474;23;20272;-82
2024/01/26 08:32:37;;;;;;;114.87;56.30;;;2.20;99.90;;;;;;6194835;23;20166;-81
2024/01/26 08:35:09;;;;;;;91.40;52.53;;;2.30;99.90;;;;;;6194269;23;20208;-81
2024/01/26 08:37:38;;;;;;;101.10;54.17;;;2.30;99.90;;;;;;6194092;23;20197;-81
2024/01/26 08:40:08;;;;;;;122.63;54.33;;;2.40;99.90;;;;;;6220603;23;20175;-81
2024/01/26 08:42:38;;;;;;;139.43;54.50;;;2.50;99.90;;;;;;6195257;23;20216;-82
2024/01/26 08:45:08;;;;;;;106.00;56.20;;;2.50;99.90;;;;;;6219220;23;20178;-81
2024/01/26 08:47:37;;;;;;;127.97;54.97;;;2.60;99.90;;;;;;6170681;23;20195;-82
2024/01/26 08:50:05;;;;;;;111.57;55.83;;;2.60;99.90;;;;;;6219072;23;20186;-81
2024/01/26 08:52:33;;;;;;;109.83;57.77;;;2.60;99.90;;;;;;6193400;23;20182;-82
2024/01/26 08:55:04;;;;;;;123.10;58.80;;;2.70;99.90;;;;;;6219661;23;20231;-81
2024/01/26 08:57:31;;;;;;;162.90;60.00;;;2.70;99.90;;;;;;6194299;23;20217;-81
2024/01/26 09:00:00;;;;;;;113.03;55.93;;;2.80;99.90;;;;;;6190663;23;20215;-82
2024/01/26 09:02:28;;;;;;;136.30;59.27;;;2.80;99.90;;;;;;6158796;23;20195;-81
2024/01/26 09:04:55;;;;;;;121.83;58.13;;;2.90;99.90;;;;;;6158473;23;20529;-81
2024/01/26 09:07:23;;;;;;;108.47;54.63;;;2.90;99.90;;;;;;6183078;23;20224;-81
2024/01/26 09:09:52;;;;;;;103.67;51.20;;;3.00;99.90;;;;;;6159087;23;20225;-81
2024/01/26 09:12:19;;;;;;;112.00;54.07;;;3.10;99.90;;;;;;6159786;23;20195;-82
2024/01/26 09:14:47;;;;;;;105.03;53.30;;;3.10;99.90;;;;;;6158367;23;20198;-81
2024/01/26 09:17:16;;;;;;;103.10;53.73;;;3.20;99.90;;;;;;6158532;23;20229;-81
2024/01/26 09:19:44;;;;;;;106.30;52.93;;;3.30;99.90;;;;;;6183170;23;20202;-81
2024/01/26 09:22:14;;;;;;;101.27;53.73;;;3.30;99.90;;;;;;6158845;23;20217;-81
2024/01/26 09:24:44;;;;;;;111.47;54.57;;;3.40;99.90;;;;;;6182555;23;20189;-81
2024/01/26 09:27:12;;;;;;;107.83;53.17;;;3.50;99.90;;;;;;6158119;23;20245;-82
2024/01/26 09:29:41;;;;;;;101.93;55.53;;;3.50;99.90;;;;;;6183367;23;20205;-81
2024/01/26 09:32:08;;;;;;;102.33;57.40;;;3.60;99.90;;;;;;6158092;23;20206;-81
2024/01/26 09:34:39;;;;;;;101.90;54.73;;;3.60;99.90;;;;;;6158444;23;20194;-81
2024/01/26 09:37:11;;;;;;;116.67;53.50;;;3.70;99.90;;;;;;6182583;23;20192;-81
2024/01/26 09:39:38;;;;;;;103.33;54.40;;;3.80;99.90;;;;;;6159640;23;20300;-81
2024/01/26 09:42:06;;;;;;;95.37;51.47;;;3.80;99.90;;;;;;6158199;23;20283;-81
2024/01/26 09:44:34;;;;;;;93.00;53.67;;;3.90;99.90;;;;;;6158206;23;20183;-81
2024/01/26 09:47:08;;;;;;;97.17;53.63;;;4.00;99.90;;;;;;6157985;23;20187;-81
2024/01/26 09:49:42;;;;;;;89.90;54.47;;;4.10;99.90;;;;;;6158185;23;20199;-81
2024/01/26 09:52:12;;;;;;;90.03;53.33;;;4.20;99.90;;;;;;6160606;23;20571;-81
2024/01/26 09:54:42;;;;;;;120.47;54.57;;;4.20;99.90;;;;;;6135176;23;20619;-81
2024/01/26 09:57:11;;;;;;;100.03;53.17;;;4.30;99.90;;;;;;6135905;23;20238;-81
2024/01/26 09:59:39;;;;;;;134.13;57.33;;;4.40;99.90;;;;;;6177865;23;20206;-81
2024/01/26 10:02:08;;;;;;;121.73;56.53;;;4.40;99.90;;;;;;6215212;23;20175;-82
2024/01/26 10:04:36;;;;;;;100.23;56.73;;;4.50;99.90;;;;;;6190490;23;20183;-82
2024/01/26 10:07:06;;;;;;;117.73;56.23;;;4.60;99.90;;;;;;6165513;23;20628;-81
2024/01/26 10:09:35;;;;;;;102.77;55.60;;;4.70;99.90;;;;;;6191467;23;20187;-81
2024/01/26 10:12:05;;;;;;;111.30;58.20;;;4.70;99.90;;;;;;6166267;23;20245;-80
2024/01/26 10:14:32;;;;;;;120.17;57.90;;;4.80;99.90;;;;;;6166187;23;20261;-81
2024/01/26 10:17:02;;;;;;;109.60;59.27;;;4.80;99.90;;;;;;6166390;23;20213;-81
2024/01/26 10:19:30;;;;;;;92.80;59.13;;;4.90;99.90;;;;;;6190601;23;20166;-81
2024/01/26 10:22:03;;;;;;;118.60;56.83;;;5.00;99.90;;;;;;6215865;23;20182;-81
2024/01/26 10:24:33;;;;;;;105.67;58.50;;;5.00;99.90;;;;;;6214727;23;20237;-81
2024/01/26 10:27:01;;;;;;;100.63;58.73;;;5.10;99.90;;;;;;6189995;23;20171;-82
2024/01/26 10:29:29;;;;;;;105.43;61.17;;;5.20;99.90;;;;;;6190800;23;20172;-81
2024/01/26 10:31:57;;;;;;;108.47;59.53;;;5.20;99.90;;;;;;6215662;23;20186;-80
2024/01/26 10:34:26;;;;;;;103.57;61.10;;;5.30;99.90;;;;;;6190356;23;20176;-82
2024/01/26 10:36:59;;;;;;;109.50;62.83;;;5.30;99.90;;;;;;6191333;23;20193;-81
2024/01/26 10:39:31;;;;;;;109.40;64.17;;;5.40;99.90;;;;;;6214090;23;20197;-81
2024/01/26 10:42:06;;;;;;;115.70;67.33;;;5.40;99.90;;;;;;6165356;23;20266;-80
2024/01/26 10:44:37;;;;;;;118.53;66.67;;;5.50;99.90;;;;;;6213956;23;20175;-81
2024/01/26 10:47:08;;;;;;;115.77;65.97;;;5.50;99.90;;;;;;6165222;23;20460;-81
2024/01/26 10:49:38;;;;;;;120.23;66.20;;;5.60;99.90;;;;;;6189010;23;20602;-80
2024/01/26 10:52:06;;;;;;;129.20;71.43;;;5.70;99.90;;;;;;6165367;23;20230;-81
2024/01/26 10:54:35;;;;;;;136.00;76.53;;;5.80;99.90;;;;;;6165192;23;20179;-80
2024/01/26 10:57:04;;;;;;;130.60;72.57;;;5.90;99.90;;;;;;6214957;23;20219;-82
2024/01/26 10:59:35;;;;;;;125.70;74.23;;;6.00;99.90;;;;;;6157607;23;20212;-80
2024/01/26 11:02:03;;;;;;;140.10;77.60;;;6.10;99.90;;;;;;6159678;23;20168;-81
2024/01/26 11:04:31;;;;;;;143.83;81.47;;;6.10;99.90;;;;;;6183990;23;20180;-82
2024/01/26 11:07:00;;;;;;;137.13;78.57;;;6.20;99.90;;;;;;6159749;23;20449;-80
2024/01/26 11:09:34;;;;;;;135.83;79.80;;;6.30;99.90;;;;;;6183826;23;20498;-81
2024/01/26 11:12:03;;;;;;;146.10;81.20;;;6.40;99.90;;;;;;6186288;23;20199;-80
2024/01/26 11:14:33;;;;;;;134.73;78.97;;;6.40;99.90;;;;;;6158785;23;20532;-80
2024/01/26 11:17:11;;;;;;;136.83;78.33;;;6.50;99.90;;;;;;6183898;23;20196;-81
2024/01/26 11:19:47;;;;;;;144.23;80.17;;;6.50;99.90;;;;;;6135371;23;20534;-81
2024/01/26 11:22:15;;;;;;;136.47;81.23;;;6.50;99.90;;;;;;6184022;23;20527;-81
2024/01/26 11:24:44;;;;;;;131.60;80.23;;;6.60;99.90;;;;;;6183515;23;20172;-81
2024/01/26 11:27:14;;;;;;;137.77;81.90;;;6.60;99.90;;;;;;6158888;23;20180;-83
2024/01/26 11:29:42;;;;;;;126.50;79.67;;;6.70;99.90;;;;;;6183806;23;20187;-80
2024/01/26 11:32:19;;;;;;;133.57;78.77;;;6.70;99.90;;;;;;6183850;23;20185;-81
2024/01/26 11:34:59;;;;;;;137.93;79.73;;;6.70;99.90;;;;;;6183300;23;20190;-81
2024/01/26 11:37:28;;;;;;;137.27;80.77;;;6.70;99.90;;;;;;6183192;23;20196;-81
2024/01/26 11:39:56;;;;;;;142.23;81.60;;;6.80;99.90;;;;;;6182912;23;20176;-82
2024/01/26 11:42:24;;;;;;;134.00;82.70;;;6.80;99.90;;;;;;6160106;23;20248;-80
2024/01/26 11:45:19;;;;;;;149.23;84.47;;;6.80;99.90;;;;;;6158288;23;20171;-81
2024/01/26 11:47:48;;;;;;;139.13;84.17;;;6.70;99.90;;;;;;6184262;23;20181;-81
2024/01/26 11:50:17;;;;;;;148.87;86.37;;;6.80;99.90;;;;;;6184501;23;20505;-80
2024/01/26 11:52:45;;;;;;;143.50;86.63;;;6.80;99.90;;;;;;6183141;23;20582;-81
2024/01/26 11:55:15;;;;;;;143.47;81.00;;;6.80;99.90;;;;;;6183181;23;20202;-80
2024/01/26 11:57:43;;;;;;;154.10;87.70;;;6.80;99.90;;;;;;6159749;23;20220;-82
2024/01/26 12:00:12;;;;;;;147.80;85.87;;;6.70;99.90;;;;;;6203094;23;20211;-81
2024/01/26 12:02:43;;;;;;;139.17;81.43;;;6.70;99.90;;;;;;6158703;23;20200;-81
2024/01/26 12:05:11;;;;;;;142.50;85.67;;;6.60;99.90;;;;;;6157967;23;20172;-80
2024/01/26 12:07:39;;;;;;;145.77;84.07;;;6.60;99.90;;;;;;6158055;23;20195;-81
2024/01/26 12:10:13;;;;;;;142.70;86.60;;;6.50;99.90;;;;;;6157728;23;20185;-82
2024/01/26 12:12:42;;;;;;;139.13;80.80;;;6.50;99.90;;;;;;6159434;23;20172;-81
2024/01/26 12:15:11;;;;;;;148.00;85.47;;;6.60;99.90;;;;;;6159549;23;20190;-80
2024/01/26 12:17:39;;;;;;;151.43;86.60;;;6.60;99.90;;;;;;6207547;23;20192;-80
2024/01/26 12:20:10;;;;;;;153.27;88.77;;;6.70;99.90;;;;;;6182604;23;20461;-80
2024/01/26 12:22:38;;;;;;;148.97;85.90;;;6.70;99.90;;;;;;6158462;23;20180;-81
2024/01/26 12:25:09;;;;;;;148.30;85.53;;;6.70;99.90;;;;;;6158167;23;20534;-82
2024/01/26 12:27:37;;;;;;;146.70;84.47;;;6.80;99.90;;;;;;6182550;23;20180;-81
2024/01/26 12:30:07;;;;;;;151.70;88.07;;;6.80;99.90;;;;;;6158313;23;20199;-82
2024/01/26 12:32:37;;;;;;;146.80;82.33;;;6.80;99.90;;;;;;6206767;23;20231;-80
2024/01/26 12:35:06;;;;;;;141.50;83.13;;;6.80;99.90;;;;;;6207221;23;20166;-82
2024/01/26 12:37:37;;;;;;;146.07;84.03;;;6.80;99.90;;;;;;6181819;23;20511;-80
2024/01/26 12:40:09;;;;;;;148.90;85.50;;;6.80;99.90;;;;;;6182416;23;20187;-81
2024/01/26 12:42:38;;;;;;;157.53;88.53;;;6.80;99.90;;;;;;6157864;23;20168;-81